createdAt,value
2023-03-21T00:01:56.264Z,19.20
2023-03-21T00:04:33.163Z,19.30
2023-03-21T00:07:06.787Z,25.53
2023-03-21T00:09:35.509Z,22.90
2023-03-21T00:12:07.528Z,21.03
2023-03-21T00:14:38.012Z,21.07
2023-03-21T00:17:10.936Z,18.43
2023-03-21T00:19:41.386Z,17.93
2023-03-21T00:22:10.348Z,15.83
2023-03-21T00:24:39.378Z,16.47
2023-03-21T00:27:34.598Z,16.30
2023-03-21T00:29:57.361Z,18.07
2023-03-21T00:32:27.812Z,19.17
2023-03-21T00:35:16.515Z,20.60
2023-03-21T00:37:46.850Z,15.93
2023-03-21T00:40:26.563Z,15.13
2023-03-21T00:42:57.951Z,19.80
2023-03-21T00:45:28.236Z,18.17
2023-03-21T00:47:58.542Z,24.23
2023-03-21T00:50:27.629Z,19.30
2023-03-21T00:52:56.896Z,20.17
2023-03-21T00:55:27.195Z,20.07
2023-03-21T00:58:01.824Z,18.57
2023-03-21T01:00:33.146Z,20.37
2023-03-21T01:03:17.494Z,24.13
2023-03-21T01:06:05.687Z,20.63
2023-03-21T01:08:51.060Z,23.73
2023-03-21T01:11:25.167Z,24.93
2023-03-21T01:14:14.649Z,25.10
2023-03-21T01:16:43.924Z,26.07
2023-03-21T01:19:25.525Z,29.53
2023-03-21T01:21:56.742Z,29.27
2023-03-21T01:24:26.668Z,24.60
2023-03-21T01:26:55.448Z,28.13
2023-03-21T01:29:24.390Z,30.77
2023-03-21T01:31:53.277Z,30.37
2023-03-21T01:34:23.406Z,31.43
2023-03-21T01:36:52.519Z,30.67
2023-03-21T01:39:23.213Z,27.97
2023-03-21T01:41:52.713Z,29.93
2023-03-21T01:44:27.304Z,27.93
2023-03-21T01:47:11.077Z,28.73
2023-03-21T01:49:46.995Z,26.13
2023-03-21T01:52:37.840Z,28.53
2023-03-21T01:55:16.215Z,23.87
2023-03-21T01:58:05.816Z,29.87
2023-03-21T02:00:56.950Z,30.77
2023-03-21T02:03:38.459Z,32.10
2023-03-21T02:06:41.477Z,31.80
2023-03-21T02:09:24.718Z,26.20
2023-03-21T02:11:56.762Z,28.13
2023-03-21T02:14:33.623Z,24.90
2023-03-21T02:17:19.891Z,23.67
2023-03-21T02:20:51.150Z,24.67
2023-03-21T02:24:02.310Z,25.43
2023-03-21T02:27:07.776Z,23.37
2023-03-21T02:30:49.181Z,25.67
2023-03-21T02:34:42.484Z,24.30
2023-03-21T02:37:37.663Z,18.50
2023-03-21T02:40:16.732Z,15.37
2023-03-21T02:43:05.632Z,15.67
2023-03-21T02:45:46.878Z,14.67
2023-03-21T02:48:31.153Z,13.70
2023-03-21T02:51:07.710Z,13.50
2023-03-21T02:53:45.019Z,12.43
2023-03-21T02:56:14.280Z,15.80
2023-03-21T02:58:49.786Z,16.17
2023-03-21T03:01:18.612Z,15.10
2023-03-21T03:03:50.424Z,14.53
2023-03-21T03:06:27.930Z,16.13
2023-03-21T03:09:25.552Z,15.70
2023-03-21T03:12:10.720Z,17.03
2023-03-21T03:15:02.973Z,15.87
2023-03-21T03:17:52.896Z,15.50
2023-03-21T03:20:37.446Z,15.23
2023-03-21T03:23:19.793Z,14.63
2023-03-21T03:25:58.026Z,16.43
2023-03-21T03:28:34.392Z,16.20
2023-03-21T03:31:09.692Z,14.03
2023-03-21T03:33:59.322Z,15.33
2023-03-21T03:36:39.370Z,15.53
2023-03-21T03:39:18.013Z,13.43
2023-03-21T03:42:12.482Z,15.60
2023-03-21T03:44:47.568Z,17.73
2023-03-21T03:47:32.731Z,16.00
2023-03-21T03:50:13.389Z,16.70
2023-03-21T03:52:56.107Z,13.50
2023-03-21T03:55:34.502Z,15.40
2023-03-21T03:58:21.735Z,23.77
2023-03-21T04:00:52.325Z,15.83
2023-03-21T04:03:21.476Z,17.23
2023-03-21T04:05:50.831Z,14.93
2023-03-21T04:08:20.140Z,14.47
2023-03-21T04:10:54.467Z,14.77
2023-03-21T04:13:25.945Z,17.30
2023-03-21T04:16:05.292Z,15.13
2023-03-21T04:18:34.169Z,14.10
2023-03-21T04:21:03.667Z,16.30
2023-03-21T04:23:33.302Z,14.10
2023-03-21T04:26:02.018Z,19.87
2023-03-21T04:28:39.885Z,17.17
2023-03-21T04:31:28.688Z,17.47
2023-03-21T04:34:09.967Z,14.43
2023-03-21T04:36:44.725Z,14.50
2023-03-21T04:39:14.078Z,11.53
2023-03-21T04:41:46.829Z,15.87
2023-03-21T04:44:19.040Z,11.50
2023-03-21T04:46:48.563Z,13.53
2023-03-21T04:49:18.564Z,11.87
2023-03-21T04:51:47.388Z,12.27
2023-03-21T04:54:21.111Z,15.27
2023-03-21T04:56:52.086Z,12.13
2023-03-21T04:59:22.292Z,11.53
2023-03-21T05:01:52.011Z,11.97
2023-03-21T05:04:22.843Z,10.90
2023-03-21T05:06:54.248Z,11.80
2023-03-21T05:09:23.328Z,12.60
2023-03-21T05:11:55.066Z,11.63
2023-03-21T05:14:28.578Z,11.10
2023-03-21T05:16:57.953Z,10.57
2023-03-21T05:19:35.213Z,10.50
2023-03-21T05:22:09.261Z,13.77
2023-03-21T05:24:42.075Z,17.80
2023-03-21T05:27:34.323Z,24.03
2023-03-21T05:30:10.763Z,16.13
2023-03-21T05:32:39.806Z,12.27
2023-03-21T05:35:12.498Z,12.43
2023-03-21T05:37:43.137Z,15.43
2023-03-21T05:40:13.867Z,13.27
2023-03-21T05:42:47.182Z,11.37
2023-03-21T05:45:24.732Z,13.47
2023-03-21T05:47:53.854Z,14.03
2023-03-21T05:50:28.161Z,15.40
2023-03-21T05:53:13.937Z,14.07
2023-03-21T05:55:48.888Z,14.23
2023-03-21T05:58:40.709Z,16.70
2023-03-21T06:01:12.789Z,11.50
2023-03-21T06:03:46.449Z,19.93
2023-03-21T06:06:19.922Z,19.93
2023-03-21T06:09:06.882Z,16.00
2023-03-21T06:11:38.990Z,17.93
2023-03-21T06:14:27.029Z,16.07
2023-03-21T06:17:16.866Z,16.93
2023-03-21T06:19:58.438Z,19.63
2023-03-21T06:22:32.228Z,62.43
2023-03-21T06:25:02.804Z,56.70
2023-03-21T06:27:33.622Z,24.53
2023-03-21T06:30:02.524Z,23.90
2023-03-21T06:32:39.255Z,13.27
2023-03-21T06:35:19.946Z,10.20
2023-03-21T06:37:49.557Z,9.20
2023-03-21T06:40:26.886Z,11.63
2023-03-21T06:43:27.851Z,10.73
2023-03-21T06:45:56.638Z,11.13
2023-03-21T06:48:28.031Z,9.53
2023-03-21T06:50:57.652Z,10.73
2023-03-21T06:53:30.228Z,14.33
2023-03-21T06:56:17.732Z,13.57
2023-03-21T06:58:47.763Z,12.17
2023-03-21T07:01:31.713Z,12.00
2023-03-21T07:04:09.174Z,13.70
2023-03-21T07:06:38.410Z,11.23
2023-03-21T07:09:07.999Z,16.03
2023-03-21T07:11:38.637Z,13.77
2023-03-21T07:14:10.293Z,13.47
2023-03-21T07:16:40.191Z,14.97
2023-03-21T07:19:10.667Z,16.13
2023-03-21T07:21:39.417Z,13.43
2023-03-21T07:24:08.957Z,13.37
2023-03-21T07:26:37.772Z,12.67
2023-03-21T07:29:07.658Z,10.47
2023-03-21T07:31:36.840Z,13.73
2023-03-21T07:34:06.011Z,15.50
2023-03-21T07:36:37.010Z,12.87
2023-03-21T07:39:06.409Z,14.03
2023-03-21T07:41:35.369Z,13.50
2023-03-21T07:44:15.697Z,14.47
2023-03-21T07:46:44.441Z,13.93
2023-03-21T07:49:13.226Z,14.37
2023-03-21T07:51:43.707Z,13.63
2023-03-21T07:54:13.529Z,13.37
2023-03-21T07:56:42.585Z,13.07
2023-03-21T07:59:11.306Z,11.53
2023-03-21T08:01:40.207Z,13.53
2023-03-21T08:04:09.010Z,10.63
2023-03-21T08:06:37.797Z,11.03
2023-03-21T08:09:07.974Z,12.80
2023-03-21T08:11:36.766Z,11.80
2023-03-21T08:14:05.512Z,11.60
2023-03-21T08:16:34.283Z,10.73
2023-03-21T08:19:03.101Z,10.23
2023-03-21T08:21:31.846Z,7.80
2023-03-21T08:24:00.527Z,9.37
2023-03-21T08:26:32.524Z,10.00
2023-03-21T08:29:01.349Z,8.30
2023-03-21T08:31:30.056Z,10.67
2023-03-21T08:33:58.944Z,8.13
2023-03-21T08:36:27.671Z,9.13
2023-03-21T08:38:57.250Z,8.67
2023-03-21T08:41:26.473Z,5.87
2023-03-21T08:43:56.838Z,6.50
2023-03-21T08:46:25.770Z,8.07
2023-03-21T08:48:57.521Z,10.63
2023-03-21T08:51:26.258Z,7.70
2023-03-21T08:53:54.994Z,5.80
2023-03-21T08:56:23.656Z,8.13
2023-03-21T08:58:52.366Z,7.30
2023-03-21T09:01:22.409Z,6.20
2023-03-21T09:03:51.135Z,7.27
2023-03-21T09:06:19.831Z,6.37
2023-03-21T09:08:48.473Z,5.90
2023-03-21T09:11:17.222Z,5.00
2023-03-21T09:13:46.209Z,5.90
2023-03-21T09:16:14.995Z,7.00
2023-03-21T09:18:49.633Z,5.40
2023-03-21T09:21:20.454Z,7.97
2023-03-21T09:23:52.811Z,7.13
2023-03-21T09:26:21.782Z,5.90
2023-03-21T09:28:51.308Z,6.83
2023-03-21T09:31:22.999Z,6.30
2023-03-21T09:33:56.001Z,6.83
2023-03-21T09:36:27.296Z,5.40
2023-03-21T09:38:57.061Z,6.23
2023-03-21T09:41:52.942Z,5.27
2023-03-21T09:44:41.001Z,5.53
2023-03-21T09:47:22.284Z,6.50
2023-03-21T09:50:13.153Z,5.57
2023-03-21T09:52:49.772Z,7.20
2023-03-21T09:55:22.505Z,7.07
2023-03-21T09:58:04.470Z,7.00
2023-03-21T10:00:42.070Z,6.90
2023-03-21T10:03:24.552Z,5.13
2023-03-21T10:05:58.743Z,6.17
2023-03-21T10:08:36.530Z,5.67
2023-03-21T10:11:17.011Z,7.07
2023-03-21T10:13:52.414Z,5.43
2023-03-21T10:16:29.228Z,5.97
2023-03-21T10:18:59.559Z,5.07
2023-03-21T10:21:58.453Z,5.00
2023-03-21T10:24:25.071Z,4.80
2023-03-21T10:26:55.989Z,5.00
2023-03-21T10:29:31.477Z,5.60
2023-03-21T10:32:01.697Z,5.50
2023-03-21T10:34:39.257Z,5.50
2023-03-21T10:37:16.893Z,6.77
2023-03-21T10:39:50.304Z,4.57
2023-03-21T10:42:24.881Z,3.97
2023-03-21T10:44:57.444Z,5.40
2023-03-21T10:47:29.423Z,4.43
2023-03-21T10:50:08.883Z,4.13
2023-03-21T10:52:46.365Z,6.73
2023-03-21T10:55:26.435Z,3.67
2023-03-21T10:58:00.656Z,4.73
2023-03-21T11:00:36.989Z,3.20
2023-03-21T11:03:07.172Z,3.80
2023-03-21T11:05:40.907Z,4.27
2023-03-21T11:08:16.487Z,3.53
2023-03-21T11:10:56.468Z,5.47
2023-03-21T11:13:28.990Z,4.33
2023-03-21T11:16:08.054Z,3.93
2023-03-21T11:18:43.546Z,5.57
2023-03-21T11:21:15.616Z,3.17
2023-03-21T11:23:49.649Z,8.53
2023-03-21T11:26:24.372Z,5.90
2023-03-21T11:28:54.074Z,3.87
2023-03-21T11:31:25.060Z,3.27
2023-03-21T11:33:57.148Z,2.60
2023-03-21T11:36:35.228Z,3.00
2023-03-21T11:39:27.736Z,4.73
2023-03-21T11:41:56.626Z,5.33
2023-03-21T11:44:33.662Z,3.53
2023-03-21T11:47:03.490Z,3.33
2023-03-21T11:49:32.810Z,3.83
2023-03-21T11:52:24.714Z,4.27
2023-03-21T11:55:20.305Z,3.17
2023-03-21T11:58:14.364Z,3.27
2023-03-21T12:00:54.836Z,2.90
2023-03-21T12:04:09.828Z,2.93
2023-03-21T12:06:44.644Z,3.90
2023-03-21T12:09:37.710Z,3.93
2023-03-21T12:12:38.399Z,3.63
2023-03-21T12:15:19.518Z,3.53
2023-03-21T12:18:01.454Z,3.20
2023-03-21T12:20:45.751Z,2.97
2023-03-21T12:23:53.412Z,4.30
2023-03-21T12:26:28.381Z,2.23
2023-03-21T12:29:20.944Z,3.90
2023-03-21T12:32:11.502Z,5.63
2023-03-21T12:35:28.931Z,3.77
2023-03-21T12:38:41.278Z,2.73
2023-03-21T12:41:25.633Z,3.50
2023-03-21T12:44:03.627Z,3.43
2023-03-21T12:46:42.589Z,4.37
2023-03-21T12:49:19.851Z,7.87
2023-03-21T12:51:53.124Z,3.83
2023-03-21T12:54:32.899Z,3.43
2023-03-21T12:57:10.375Z,3.83
2023-03-21T12:59:48.258Z,2.80
2023-03-21T13:02:26.684Z,3.20
2023-03-21T13:05:06.429Z,7.57
2023-03-21T13:07:43.778Z,4.73
2023-03-21T13:10:21.017Z,3.37
2023-03-21T13:13:17.388Z,3.30
2023-03-21T13:16:14.159Z,2.30
2023-03-21T13:19:06.711Z,3.27
2023-03-21T13:21:52.261Z,2.27
2023-03-21T13:24:33.491Z,3.37
2023-03-21T13:27:07.555Z,2.93
2023-03-21T13:29:47.550Z,3.83
2023-03-21T13:32:29.658Z,3.47
2023-03-21T13:35:01.552Z,4.03
2023-03-21T13:37:43.290Z,5.47
2023-03-21T13:40:26.179Z,3.57
2023-03-21T13:42:59.288Z,2.77
2023-03-21T13:45:33.327Z,3.70
2023-03-21T13:48:07.557Z,2.50
2023-03-21T13:50:52.962Z,4.80
2023-03-21T13:53:32.676Z,2.30
2023-03-21T13:56:24.893Z,4.10
2023-03-21T13:59:05.398Z,4.63
2023-03-21T14:02:02.009Z,4.10
2023-03-21T14:04:42.096Z,4.37
2023-03-21T14:07:24.683Z,5.23
2023-03-21T14:09:57.405Z,2.40
2023-03-21T14:12:29.881Z,3.63
2023-03-21T14:15:16.269Z,2.80
2023-03-21T14:17:54.446Z,2.90
2023-03-21T14:20:28.992Z,2.30
2023-03-21T14:22:59.001Z,3.57
2023-03-21T14:25:41.075Z,1.77
2023-03-21T14:28:19.394Z,2.57
2023-03-21T14:30:55.172Z,2.77
2023-03-21T14:33:31.328Z,2.87
2023-03-21T14:36:08.984Z,1.97
2023-03-21T14:38:40.887Z,2.60
2023-03-21T14:41:24.502Z,2.07
2023-03-21T14:44:30.278Z,4.17
2023-03-21T14:47:04.762Z,4.27
2023-03-21T14:49:36.142Z,3.77
2023-03-21T14:52:12.532Z,2.30
2023-03-21T14:54:42.744Z,2.67
2023-03-21T14:57:17.153Z,3.30
2023-03-21T14:59:49.957Z,4.87
2023-03-21T15:02:23.945Z,2.10
2023-03-21T15:04:57.625Z,2.17
2023-03-21T15:07:30.629Z,8.93
2023-03-21T15:10:05.256Z,6.03
2023-03-21T15:12:35.050Z,5.73
2023-03-21T15:15:05.882Z,5.97
2023-03-21T15:17:34.906Z,4.07
2023-03-21T15:20:05.887Z,5.20
2023-03-21T15:22:40.887Z,4.17
2023-03-21T15:25:18.505Z,6.13
2023-03-21T15:27:47.521Z,7.53
2023-03-21T15:30:28.015Z,3.20
2023-03-21T15:32:58.053Z,5.43
2023-03-21T15:35:34.685Z,4.53
2023-03-21T15:38:06.738Z,3.43
2023-03-21T15:40:37.913Z,4.97
2023-03-21T15:43:14.512Z,6.07
2023-03-21T15:45:50.524Z,3.60
2023-03-21T15:48:26.749Z,7.53
2023-03-21T15:51:03.862Z,7.43
2023-03-21T15:53:38.537Z,2.93
2023-03-21T15:56:16.127Z,2.60
2023-03-21T15:58:49.093Z,4.30
2023-03-21T16:01:22.118Z,2.37
2023-03-21T16:03:58.615Z,3.30
2023-03-21T16:06:34.185Z,5.87
2023-03-21T16:09:22.160Z,3.43
2023-03-21T16:11:54.131Z,4.70
2023-03-21T16:14:24.814Z,5.77
2023-03-21T16:16:53.917Z,2.83
2023-03-21T16:19:23.373Z,6.53
2023-03-21T16:21:53.886Z,4.40
2023-03-21T16:24:24.150Z,5.10
2023-03-21T16:26:55.166Z,4.53
2023-03-21T16:29:23.869Z,5.87
2023-03-21T16:31:53.310Z,4.93
2023-03-21T16:34:22.140Z,6.40
2023-03-21T16:36:50.952Z,4.60
2023-03-21T16:39:22.531Z,6.30
2023-03-21T16:41:52.647Z,4.63
2023-03-21T16:44:22.478Z,4.10
2023-03-21T16:46:51.324Z,6.13
2023-03-21T16:49:23.965Z,4.07
2023-03-21T16:51:53.757Z,7.17
2023-03-21T16:54:23.099Z,5.93
2023-03-21T16:56:56.486Z,5.33
2023-03-21T16:59:25.373Z,7.63
2023-03-21T17:01:54.046Z,6.57
2023-03-21T17:04:24.911Z,6.53
2023-03-21T17:06:55.544Z,6.20
2023-03-21T17:09:28.058Z,10.50
2023-03-21T17:11:59.437Z,4.97
2023-03-21T17:14:32.434Z,3.60
2023-03-21T17:17:01.320Z,7.57
2023-03-21T17:19:31.084Z,5.40
2023-03-21T17:21:59.883Z,5.20
2023-03-21T17:24:29.872Z,3.40
2023-03-21T17:27:02.954Z,6.13
2023-03-21T17:29:33.428Z,6.97
2023-03-21T17:32:08.213Z,6.30
2023-03-21T17:34:37.025Z,8.03
2023-03-21T17:37:10.965Z,5.43
2023-03-21T17:39:43.042Z,8.60
2023-03-21T17:42:20.634Z,7.20
2023-03-21T17:44:51.124Z,9.13
2023-03-21T17:47:25.513Z,10.10
2023-03-21T17:49:54.479Z,8.10
2023-03-21T17:52:24.724Z,9.53
2023-03-21T17:54:53.818Z,7.23
2023-03-21T17:57:25.716Z,10.50
2023-03-21T17:59:57.660Z,12.73
2023-03-21T18:02:28.111Z,10.23
2023-03-21T18:04:59.432Z,9.37
2023-03-21T18:08:05.941Z,11.70
2023-03-21T18:10:24.599Z,10.83
2023-03-21T18:12:57.128Z,13.57
2023-03-21T18:15:30.319Z,12.77
2023-03-21T18:18:04.741Z,9.47
2023-03-21T18:23:23.525Z,8.73
2023-03-21T18:25:55.876Z,8.67
2023-03-21T18:28:26.963Z,9.97
2023-03-21T18:31:17.952Z,8.90
2023-03-21T18:33:45.470Z,8.63
2023-03-21T18:36:24.052Z,8.17
2023-03-21T18:38:55.161Z,9.23
2023-03-21T18:41:23.961Z,8.63
2023-03-21T18:44:11.794Z,12.13
2023-03-21T18:46:47.303Z,7.23
2023-03-21T18:52:09.106Z,8.43
2023-03-21T18:54:41.399Z,7.20
2023-03-21T18:57:35.021Z,8.33
2023-03-21T19:00:02.074Z,11.13
2023-03-21T19:02:31.108Z,9.53
2023-03-21T19:04:59.918Z,13.67
2023-03-21T19:07:28.811Z,15.43
2023-03-21T19:10:16.324Z,14.30
2023-03-21T19:12:46.284Z,14.50
2023-03-21T19:15:19.673Z,11.73
2023-03-21T19:29:12.231Z,8.37
2023-03-21T19:31:58.938Z,8.77
2023-03-21T19:34:53.488Z,8.20
2023-03-21T19:37:27.325Z,10.20
2023-03-21T19:39:56.729Z,10.20
2023-03-21T19:45:29.328Z,11.73
2023-03-21T19:48:19.007Z,10.77
2023-03-21T19:51:25.751Z,11.03
2023-03-21T19:53:49.886Z,13.17
2023-03-21T19:56:27.797Z,6.90
2023-03-21T20:02:08.886Z,8.50
2023-03-21T20:04:59.601Z,6.37
2023-03-21T20:07:33.926Z,7.50
2023-03-21T20:10:05.735Z,9.77
2023-03-21T20:12:36.717Z,7.13
2023-03-21T20:15:16.964Z,9.03
2023-03-21T20:17:52.179Z,6.83
2023-03-21T20:20:34.525Z,7.63
2023-03-21T20:23:08.993Z,11.27
2023-03-21T20:25:43.975Z,11.03
2023-03-21T20:28:24.633Z,9.23
2023-03-21T20:30:57.033Z,10.43
2023-03-21T20:33:34.134Z,10.23
2023-03-21T20:36:38.692Z,9.37
2023-03-21T20:38:58.406Z,10.23
2023-03-21T20:41:27.885Z,10.13
2023-03-21T20:44:39.492Z,9.97
2023-03-21T20:46:49.729Z,9.33
2023-03-21T20:49:19.803Z,10.70
2023-03-21T20:54:39.304Z,10.63
2023-03-21T20:57:07.997Z,6.83
2023-03-21T20:59:36.778Z,6.43
2023-03-21T21:02:06.216Z,10.00
2023-03-21T21:04:52.493Z,7.83
2023-03-21T21:07:27.914Z,6.93
2023-03-21T21:09:57.150Z,7.50
2023-03-21T21:12:27.623Z,8.40
2023-03-21T21:14:56.808Z,9.33
2023-03-21T21:18:04.011Z,6.97
2023-03-21T21:20:17.735Z,7.23
2023-03-21T21:22:59.694Z,6.67
2023-03-21T21:25:30.700Z,7.60
2023-03-21T21:28:01.697Z,8.13
2023-03-21T21:30:31.981Z,7.47
2023-03-21T21:33:00.903Z,6.90
2023-03-21T21:35:29.751Z,6.47
2023-03-21T21:37:59.931Z,10.63
2023-03-21T21:40:29.741Z,10.13
2023-03-21T21:43:03.477Z,9.10
2023-03-21T21:45:32.468Z,7.23
2023-03-21T21:48:01.343Z,8.00
2023-03-21T21:50:30.056Z,7.43
2023-03-21T21:53:03.892Z,6.93
2023-03-21T21:55:35.036Z,7.60
2023-03-21T21:58:04.875Z,6.37
2023-03-21T22:00:34.544Z,7.80
2023-03-21T22:03:03.673Z,9.93
2023-03-21T22:05:32.724Z,8.83
2023-03-21T22:08:05.411Z,5.57
2023-03-21T22:10:34.707Z,7.87
2023-03-21T22:13:03.466Z,5.67
2023-03-21T22:15:33.344Z,7.70
2023-03-21T22:18:02.098Z,6.93
2023-03-21T22:20:30.836Z,6.90
2023-03-21T22:23:01.062Z,6.93
2023-03-21T22:25:33.120Z,7.87
2023-03-21T22:28:02.291Z,6.73
2023-03-21T22:30:31.643Z,6.80
2023-03-21T22:33:09.329Z,6.10
2023-03-21T22:35:38.874Z,8.67
2023-03-21T22:38:07.711Z,6.57
2023-03-21T22:40:38.262Z,10.70
2023-03-21T22:43:08.851Z,7.90
2023-03-21T22:45:37.610Z,7.13
2023-03-21T22:48:06.941Z,8.73
2023-03-21T22:50:35.688Z,8.53
2023-03-21T22:53:06.452Z,8.57
2023-03-21T22:55:36.655Z,6.23
2023-03-21T22:58:05.579Z,9.27
2023-03-21T23:00:34.681Z,6.87
2023-03-21T23:03:03.396Z,6.53
2023-03-21T23:05:32.221Z,7.40
2023-03-21T23:08:00.991Z,8.20
2023-03-21T23:10:29.717Z,10.60
2023-03-21T23:12:59.908Z,6.97
2023-03-21T23:15:28.649Z,6.40
2023-03-21T23:17:57.342Z,10.90
2023-03-21T23:20:26.036Z,7.47
2023-03-21T23:22:54.653Z,8.30
2023-03-21T23:25:24.941Z,7.67
2023-03-21T23:27:53.609Z,7.53
2023-03-21T23:30:24.360Z,8.00
2023-03-21T23:32:53.309Z,7.50
2023-03-21T23:35:21.959Z,6.13
2023-03-21T23:37:52.663Z,7.00
2023-03-21T23:40:22.308Z,9.30
2023-03-21T23:42:52.172Z,8.20
2023-03-21T23:45:22.205Z,6.97
2023-03-21T23:47:50.967Z,6.50
2023-03-21T23:50:19.849Z,6.77
2023-03-21T23:52:48.863Z,11.90
2023-03-21T23:55:17.670Z,9.30
2023-03-21T23:57:46.473Z,7.23
